La Salle, MI (48145)

1:32 AM EST on February 14, 2016 (GMT -0500)
La Salle | | Change Station
CLOSE
Current Station
Personal Weather Station
Location: La Salle, MI
Elevation: 610 ft
Nearby Weather Stations

Elev 610 ft 41.87 °N, 83.47 °W | Updated 7 seconds ago

Clear
Clear
3.9 °F
Feels Like 4 °F
N
0.0
Wind Variable Wind from ENE
Gusts 0.0 mph

Today
High -- | Low -- °F
--% Chance of Precip.
Yesterday
High -- | Low -- °F
Precip. -- in
Pressure 30.47 in
Visibility 10.0 miles
Clouds Clear
Windchill 4 °F
Dew Point -5 °F
Humidity 66%
Rainfall 0.00 in
Snow Depth Not available.
7:31 AM 6:05 PM
Waxing Crescent, 38% visible
METAR KTTF 140616Z AUTO 00000KT 10SM CLR M15/M17 A3047 RMK AO2 T11511168
Pressure 30.47 in
Visibility 10.0 miles
Clouds Clear
Windchill 4 °F
Dew Point -5 °F
Humidity 66%
Rainfall 0.00 in
Snow Depth Not available.
7:31 AM 6:05 PM
Waxing Crescent, 38% visible
METAR KTTF 140616Z AUTO 00000KT 10SM CLR M15/M17 A3047 RMK AO2 T11511168

10-Day Weather Forecast

Almanac

Astronomy

Feb. 14, 2016 Rise Set
Actual Time
Civil Twilight
Nautical Twilight
Astronomical Twilight
Moon
Length of Visible Light
Length of Day
Tomorrow will be .
, % of the Moon is Illuminated

Today's Extremes

State Highs State Lows

Community

WunderPhotos

Upload Photos

1,892,757 photos uploaded!

WunderBlog® & News

Nearby

Air Quality

  Air Quality AQ Index Pollutant
Not available.

Snow Depth

Station Depth Elevation

Earthquake Activity

City Distance Mag. Time & Date
Minimum magnitude displayed is 2.5.

Coastal Water Temperatures

Place Temperature

Stations

Nearby Weather Stations

Station Location Temp. Windchill Dew Point Humidity Wind Precip. Elev Updated Type
                   

Watches & Warnings

There are currently no watches in effect.